Time;durP1;ratioP1;P1;durP2;ratioP2;P2;SDS_P1;SDS_P2;PMS_P1;PMS_P2;Temp;Humidity;BMP_temperature;BMP_pressure;BME280_temperature;BME280_humidity;BME280_pressure;Samples;Min_cycle;Max_cycle;Signal;HPM_P1;HPM_P2
2021/12/31 00:02:14;;;;;;;37.25;19.52;;;;;;;-6.79;96.12;99921.25;6223138;22;20059;-75
2021/12/31 00:04:40;;;;;;;50.35;25.15;;;;;;;-6.75;96.07;99929.75;6247416;22;20016;-76
2021/12/31 00:07:09;;;;;;;47.40;23.25;;;;;;;-6.74;96.04;99929.78;6246524;22;20424;-76
2021/12/31 00:09:36;;;;;;;47.60;21.88;;;;;;;-6.74;96.08;99919.63;6246298;22;20483;-75
2021/12/31 00:12:04;;;;;;;38.28;18.65;;;;;;;-6.73;95.64;99921.34;6195603;22;20016;-76
2021/12/31 00:14:30;;;;;;;40.55;17.77;;;;;;;-6.71;95.84;99926.44;6220731;22;20027;-75
2021/12/31 00:16:56;;;;;;;41.30;18.90;;;;;;;-6.72;95.67;99912.03;6220726;22;20020;-76
2021/12/31 00:19:25;;;;;;;22.95;12.80;;;;;;;-6.71;96.31;99918.84;6194908;22;20026;-75
2021/12/31 00:21:54;;;;;;;23.33;13.57;;;;;;;-6.73;95.75;99910.31;6245677;22;20019;-74
2021/12/31 00:24:22;;;;;;;25.40;13.30;;;;;;;-6.72;95.45;99910.38;6272425;22;20038;-76
2021/12/31 00:26:48;;;;;;;35.75;17.38;;;;;;;-6.73;95.06;99906.09;6195245;22;20490;-76
2021/12/31 00:29:14;;;;;;;26.75;15.20;;;;;;;-6.70;95.94;99910.38;6220240;22;20399;-75
2021/12/31 00:31:40;;;;;;;49.17;20.05;;;;;;;-6.68;95.51;99901.13;6245737;22;20027;-75
2021/12/31 00:34:08;;;;;;;38.22;17.92;;;;;;;-6.70;95.05;99912.91;6195125;22;20073;-73
2021/12/31 00:36:42;;;;;;;40.45;16.67;;;;;;;-6.67;95.04;99910.41;6272559;22;20051;-76
2021/12/31 00:39:10;;;;;;;39.45;19.48;;;;;;;-6.71;95.22;99899.41;6220098;22;20535;-76
2021/12/31 00:41:36;;;;;;;65.28;31.38;;;;;;;-6.68;95.21;99896.91;6246770;22;20019;-77
2021/12/31 00:44:02;;;;;;;34.70;15.60;;;;;;;-6.66;95.59;99897.75;6220376;22;20106;-75
2021/12/31 00:46:30;;;;;;;37.40;17.25;;;;;;;-6.72;95.45;99890.06;6272214;22;20027;-75
2021/12/31 00:48:57;;;;;;;43.65;20.42;;;;;;;-6.77;95.36;99873.06;6220765;22;20036;-75
2021/12/31 00:51:24;;;;;;;48.10;19.80;;;;;;;-6.66;95.65;99881.69;6220878;22;20351;-76
2021/12/31 00:53:51;;;;;;;30.30;14.57;;;;;;;-6.69;95.91;99876.56;6245365;22;20020;-74
2021/12/31 00:56:17;;;;;;;26.17;15.00;;;;;;;-6.71;95.17;99873.16;6272576;22;20015;-77
2021/12/31 00:58:43;;;;;;;29.73;14.73;;;;;;;-6.71;95.59;99874.03;6195456;22;20371;-76
2021/12/31 01:01:16;;;;;;;45.63;21.52;;;;;;;-6.68;95.40;99879.13;6170131;22;20024;-75
2021/12/31 01:03:45;;;;;;;42.28;21.02;;;;;;;-6.67;95.27;99883.34;6196562;22;20030;-76
2021/12/31 01:06:11;;;;;;;35.88;17.95;;;;;;;-6.69;95.54;99872.34;6245753;22;20023;-75
2021/12/31 01:08:37;;;;;;;58.45;24.50;;;;;;;-6.65;94.88;99871.56;6245641;22;20459;-75
2021/12/31 01:11:03;;;;;;;52.05;23.23;;;;;;;-6.65;95.22;99871.56;6244833;22;20019;-76
2021/12/31 01:13:38;;;;;;;43.75;21.30;;;;;;;-6.68;95.30;99871.53;6220450;22;20055;-77
2021/12/31 01:16:05;;;;;;;65.57;25.88;;;;;;;-6.67;95.32;99863.06;6171748;22;20027;-75
2021/12/31 01:19:45;;;;;;;57.47;24.13;;;;;;;-6.65;95.17;99863.09;6245714;22;20325;-76
2021/12/31 01:21:18;;;;;;;36.42;19.85;;;;;;;-6.70;95.09;99865.56;6247026;22;20015;-74
2021/12/31 01:23:46;;;;;;;55.70;25.13;;;;;;;-6.66;95.35;99869.84;6197660;22;20038;-74
2021/12/31 01:26:12;;;;;;;61.85;29.35;;;;;;;-6.67;95.46;99860.50;6245518;22;20502;-76
2021/12/31 01:28:39;;;;;;;49.80;21.13;;;;;;;-6.68;95.42;99863.91;6245610;22;20534;-75
2021/12/31 01:31:04;;;;;;;44.25;21.35;;;;;;;-6.67;95.45;99865.59;6220114;22;20094;-76
2021/12/31 01:33:31;;;;;;;53.08;25.98;;;;;;;-6.67;95.21;99860.50;6195619;22;20054;-76
2021/12/31 01:35:57;;;;;;;59.03;27.55;;;;;;;-6.68;95.60;99858.84;6219972;22;20019;-75
2021/12/31 01:38:23;;;;;;;49.28;23.90;;;;;;;-6.69;95.06;99857.13;6220326;22;20452;-75
2021/12/31 01:40:50;;;;;;;45.55;21.92;;;;;;;-6.66;95.03;99854.63;6164920;23;20107;-77
2021/12/31 01:43:17;;;;;;;48.22;23.45;;;;;;;-6.66;95.36;99841.94;6190125;23;20110;-76
2021/12/31 01:45:53;;;;;;;44.13;20.38;;;;;;;-6.68;94.91;99837.69;6214526;23;20453;-76
2021/12/31 01:48:35;;;;;;;28.73;14.95;;;;;;;-6.67;94.98;99847.84;6142984;23;20627;-76
2021/12/31 01:51:02;;;;;;;41.55;21.63;;;;;;;-6.66;94.86;99851.22;6167865;23;20545;-75
2021/12/31 01:53:28;;;;;;;42.92;21.15;;;;;;;-6.67;95.43;99840.22;6215506;23;20020;-76
2021/12/31 01:55:59;;;;;;;40.60;19.33;;;;;;;-6.68;95.09;99833.47;6189479;23;20028;-75
2021/12/31 01:58:26;;;;;;;52.72;25.23;;;;;;;-6.67;95.04;99829.22;6141351;23;20103;-74
2021/12/31 02:00:52;;;;;;;49.67;23.15;;;;;;;-6.66;95.06;99836.84;6140653;23;20447;-76
2021/12/31 02:03:19;;;;;;;38.20;15.60;;;;;;;-6.67;95.46;99837.69;6217307;23;20013;-76
2021/12/31 02:05:45;;;;;;;50.10;24.20;;;;;;;-6.67;95.34;99830.06;6219362;23;20023;-75
2021/12/31 02:08:11;;;;;;;42.13;18.92;;;;;;;-6.64;95.22;99835.19;6194592;23;20031;-77
2021/12/31 02:10:37;;;;;;;33.33;15.50;;;;;;;-6.65;94.83;99825.88;6218993;23;20027;-77
2021/12/31 02:13:06;;;;;;;16.27;10.02;;;;;;;-6.68;94.68;99823.31;6170765;23;20020;-76
2021/12/31 02:15:32;;;;;;;25.73;14.32;;;;;;;-6.65;94.61;99822.50;6170332;23;20016;-73
2021/12/31 02:17:59;;;;;;;22.27;11.70;;;;;;;-6.66;94.75;99815.69;6216977;23;20416;-77
2021/12/31 02:20:42;;;;;;;25.02;15.30;;;;;;;-6.65;94.76;99810.66;6216503;23;20455;-77
2021/12/31 02:23:19;;;;;;;55.80;25.48;;;;;;;-6.62;94.88;99802.22;6216410;23;20023;-76
2021/12/31 02:25:45;;;;;;;39.83;19.75;;;;;;;-6.65;95.16;99800.50;6243045;23;20079;-76
2021/12/31 02:28:12;;;;;;;52.83;23.63;;;;;;;-6.66;94.97;99806.41;6166562;23;20409;-73
2021/12/31 02:30:38;;;;;;;59.38;26.65;;;;;;;-6.66;95.42;99801.31;6216933;23;20020;-75
2021/12/31 02:33:07;;;;;;;26.17;12.35;;;;;;;-6.64;95.23;99802.19;6243176;23;20020;-76
2021/12/31 02:35:34;;;;;;;26.17;13.98;;;;;;;-6.66;95.20;99796.25;6191591;23;20051;-77
2021/12/31 02:38:00;;;;;;;25.20;15.43;;;;;;;-6.63;94.63;99797.97;6191457;23;20107;-76
2021/12/31 02:40:28;;;;;;;24.23;13.15;;;;;;;-6.64;94.38;99794.56;6184676;23;20028;-77
2021/12/31 02:42:58;;;;;;;36.00;15.98;;;;;;;-6.62;95.37;99792.94;6215625;23;20020;-77
2021/12/31 02:45:36;;;;;;;42.22;19.40;;;;;;;-6.63;94.75;99792.91;6216783;23;20016;-78
2021/12/31 02:48:04;;;;;;;29.33;14.50;;;;;;;-6.63;95.24;99776.00;6196116;23;20031;-80
2021/12/31 02:50:34;;;;;;;15.73;10.20;;;;;;;-6.64;95.27;99781.88;6220315;23;20096;-78
2021/12/31 02:53:11;;;;;;;32.78;16.95;;;;;;;-6.61;95.05;99779.38;6195216;23;20024;-78
2021/12/31 02:55:38;;;;;;;29.17;15.30;;;;;;;-6.60;94.82;99787.84;6171917;23;20047;-79
2021/12/31 02:58:05;;;;;;;35.00;15.82;;;;;;;-6.60;94.73;99778.56;6168192;23;20020;-79
2021/12/31 03:00:31;;;;;;;27.13;13.23;;;;;;;-6.59;94.56;99775.19;6193206;23;20099;-80
2021/12/31 03:03:01;;;;;;;24.65;13.75;;;;;;;-6.63;94.85;99770.91;6217677;23;20024;-78
2021/12/31 03:05:27;;;;;;;32.95;15.80;;;;;;;-6.57;95.38;99770.97;6218276;23;20098;-79
2021/12/31 03:07:53;;;;;;;27.50;13.55;;;;;;;-6.58;94.50;99764.22;6192641;23;20024;-77
2021/12/31 03:10:19;;;;;;;24.52;11.73;;;;;;;-6.56;94.79;99762.53;6217998;23;20016;-80
2021/12/31 03:12:45;;;;;;;27.90;13.25;;;;;;;-6.58;94.72;99756.59;6217348;23;20106;-80
2021/12/31 03:15:12;;;;;;;29.45;14.88;;;;;;;-6.55;94.85;99748.16;6219074;23;20075;-80
2021/12/31 03:17:38;;;;;;;23.23;13.15;;;;;;;-6.53;94.85;99757.50;6171843;23;20023;-79
2021/12/31 03:20:14;;;;;;;16.00;9.55;;;;;;;-6.51;95.00;99748.19;6224700;23;20027;-79
2021/12/31 03:22:40;;;;;;;24.58;13.27;;;;;;;-6.54;94.62;99760.88;6248855;23;20389;-79
2021/12/31 03:25:06;;;;;;;22.40;12.55;;;;;;;-6.53;94.51;99752.44;6195187;23;20027;-78
2021/12/31 03:27:33;;;;;;;20.10;11.80;;;;;;;-6.52;94.89;99748.19;6217700;23;20028;-77
2021/12/31 03:29:59;;;;;;;25.23;13.77;;;;;;;-6.53;94.89;99738.88;6244660;23;20051;-79
2021/12/31 03:32:25;;;;;;;22.60;11.30;;;;;;;-6.53;94.40;99742.28;6218047;23;20020;-79
2021/12/31 03:34:51;;;;;;;34.95;15.80;;;;;;;-6.58;94.67;99728.69;6219377;23;20171;-78
2021/12/31 03:37:21;;;;;;;24.58;13.90;;;;;;;-6.52;94.68;99732.97;6194742;23;20488;-79
2021/12/31 03:39:47;;;;;;;26.55;13.05;;;;;;;-6.52;94.24;99738.91;6261731;22;20042;-80
2021/12/31 03:42:16;;;;;;;24.60;12.57;;;;;;;-6.59;94.74;99719.38;6226215;22;20364;-79
2021/12/31 03:44:44;;;;;;;34.58;18.13;;;;;;;-6.56;94.23;99716.00;6251582;22;20016;-79
2021/12/31 03:47:10;;;;;;;37.65;18.17;;;;;;;-6.50;94.86;99721.13;6202283;22;20113;-80
2021/12/31 03:49:37;;;;;;;25.05;14.57;;;;;;;-6.50;94.76;99722.00;6251180;22;20024;-79
2021/12/31 03:52:03;;;;;;;12.40;9.77;;;;;;;-6.52;94.52;99715.22;6222702;22;20020;-76
2021/12/31 03:54:29;;;;;;;25.73;14.85;;;;;;;-6.50;94.82;99722.00;6173783;22;20015;-78
2021/12/31 03:56:58;;;;;;;21.58;11.73;;;;;;;-6.50;94.92;99724.53;6275182;22;20022;-79
2021/12/31 03:59:26;;;;;;;20.70;11.30;;;;;;;-6.52;94.84;99718.59;6198724;22;20015;-79
2021/12/31 04:01:53;;;;;;;26.17;13.50;;;;;;;-6.47;94.84;99722.03;6197888;22;20035;-78
2021/12/31 04:04:22;;;;;;;31.00;17.07;;;;;;;-6.47;94.39;99716.09;6200427;22;20050;-77
2021/12/31 04:06:49;;;;;;;38.20;21.38;;;;;;;-6.46;94.36;99720.34;6224166;22;20023;-78
2021/12/31 04:09:14;;;;;;;20.65;11.02;;;;;;;-6.47;94.42;99716.94;6223759;22;20011;-78
2021/12/31 04:11:41;;;;;;;15.00;9.52;;;;;;;-6.50;94.49;99701.69;6222578;22;20023;-78
2021/12/31 04:14:07;;;;;;;20.02;11.38;;;;;;;-6.49;94.02;99690.72;6220929;22;20039;-78
2021/12/31 04:16:33;;;;;;;21.15;13.20;;;;;;;-6.47;94.25;99691.56;6221692;22;20065;-77
2021/12/31 04:18:59;;;;;;;14.05;9.82;;;;;;;-6.45;94.45;99694.13;6171877;22;20653;-79
2021/12/31 04:21:29;;;;;;;38.38;19.52;;;;;;;-6.47;94.49;99681.41;6245861;22;20019;-78
2021/12/31 04:26:40;;;;;;;21.02;10.63;;;;;;;-6.41;94.71;99686.53;6245649;22;20043;-77
2021/12/31 04:29:06;;;;;;;31.40;14.10;;;;;;;-6.39;94.59;99677.28;6196155;22;20120;-77
2021/12/31 04:31:32;;;;;;;23.75;13.73;;;;;;;-6.41;94.74;99673.84;6246481;22;20038;-78
2021/12/31 04:34:04;;;;;;;21.88;10.95;;;;;;;-6.40;94.67;99673.03;6273545;22;20071;-78
2021/12/31 04:36:32;;;;;;;48.28;21.45;;;;;;;-6.40;94.83;99673.03;6223034;22;20027;-78
2021/12/31 04:38:58;;;;;;;26.13;14.20;;;;;;;-6.41;94.33;99676.38;6197644;22;20030;-78
2021/12/31 04:41:26;;;;;;;30.25;14.38;;;;;;;-6.46;94.60;99683.13;6222283;22;20059;-79
2021/12/31 04:43:52;;;;;;;21.38;12.73;;;;;;;-6.43;94.65;99677.22;6172443;22;20093;-79
2021/12/31 04:46:18;;;;;;;18.63;11.25;;;;;;;-6.41;94.65;99684.00;6273156;22;20447;-78
2021/12/31 04:48:44;;;;;;;25.48;13.88;;;;;;;-6.41;95.22;99680.63;6196853;22;20051;-79
2021/12/31 04:51:12;;;;;;;30.25;15.32;;;;;;;-6.44;95.04;99676.38;6247346;22;20024;-79
2021/12/31 04:53:38;;;;;;;23.58;13.23;;;;;;;-6.44;95.54;99676.38;6199642;22;20051;-78
2021/12/31 04:56:04;;;;;;;30.08;15.10;;;;;;;-6.49;95.11;99678.03;6198215;22;20029;-79
2021/12/31 04:58:30;;;;;;;37.80;18.50;;;;;;;-6.46;95.60;99682.28;6199021;22;20572;-78
2021/12/31 05:00:57;;;;;;;68.07;29.65;;;;;;;-6.43;95.36;99693.31;6249077;22;20026;-79
2021/12/31 05:03:23;;;;;;;42.75;21.48;;;;;;;-6.45;95.30;99689.91;6273474;22;20050;-79
2021/12/31 05:05:49;;;;;;;55.03;27.67;;;;;;;-6.48;95.39;99683.97;6196269;22;20669;-80
2021/12/31 05:08:15;;;;;;;43.78;21.77;;;;;;;-6.46;95.27;99683.13;6246293;22;20024;-78
2021/12/31 05:10:42;;;;;;;57.50;24.92;;;;;;;-6.46;95.26;99675.50;6221939;22;20459;-78
2021/12/31 05:13:10;;;;;;;40.78;18.95;;;;;;;-6.43;95.78;99680.63;6221419;22;20165;-79
2021/12/31 05:15:44;;;;;;;49.67;23.17;;;;;;;-6.47;95.64;99676.34;6224362;22;20020;-80
2021/12/31 05:18:10;;;;;;;46.45;19.83;;;;;;;-6.46;95.61;99680.59;6200052;22;20031;-79
2021/12/31 05:20:36;;;;;;;50.60;23.60;;;;;;;-6.42;95.51;99684.88;6247339;22;20016;-77
2021/12/31 05:23:02;;;;;;;44.67;21.90;;;;;;;-6.43;95.73;99678.06;6274403;22;20091;-80
2021/12/31 05:25:28;;;;;;;52.50;25.70;;;;;;;-6.44;95.35;99681.44;6222332;22;20023;-78
2021/12/31 05:27:57;;;;;;;40.10;19.02;;;;;;;-6.40;95.35;99677.25;6221828;22;20033;-78
2021/12/31 05:30:25;;;;;;;24.75;12.82;;;;;;;-6.41;95.55;99670.47;6221363;22;20403;-77
2021/12/31 05:32:51;;;;;;;32.50;15.30;;;;;;;-6.41;95.16;99661.16;6274862;22;20030;-78
2021/12/31 05:35:18;;;;;;;20.70;13.18;;;;;;;-6.41;94.87;99655.22;6225776;22;20011;-79
2021/12/31 05:37:44;;;;;;;20.23;10.82;;;;;;;-6.42;94.94;99659.47;6268117;22;20035;-77
2021/12/31 05:40:10;;;;;;;26.23;14.32;;;;;;;-6.39;95.01;99659.50;6243959;22;20221;-79
2021/12/31 05:42:36;;;;;;;19.92;11.90;;;;;;;-6.35;95.22;99653.59;6211632;22;20019;-77
2021/12/31 05:45:03;;;;;;;21.70;11.73;;;;;;;-6.39;94.78;99638.34;6260188;22;20019;-77
2021/12/31 05:47:29;;;;;;;25.98;14.23;;;;;;;-6.34;94.71;99649.38;6252052;22;20043;-77
2021/12/31 05:49:55;;;;;;;31.63;15.80;;;;;;;-6.36;94.71;99644.31;6223002;22;20022;-78
2021/12/31 05:52:22;;;;;;;33.15;16.85;;;;;;;-6.27;94.48;99658.75;6221993;22;20021;-78
2021/12/31 05:54:48;;;;;;;31.17;14.35;;;;;;;-6.26;95.08;99657.06;6197275;22;20070;-79
2021/12/31 05:57:14;;;;;;;12.32;9.60;;;;;;;-6.27;94.67;99642.66;6246736;22;20019;-77
2021/12/31 05:59:40;;;;;;;20.10;11.35;;;;;;;-6.24;94.69;99645.22;6221034;22;20022;-78
2021/12/31 06:02:06;;;;;;;23.85;12.48;;;;;;;-6.24;94.80;99635.94;6221756;22;20476;-77
2021/12/31 06:04:32;;;;;;;18.45;11.60;;;;;;;-6.25;95.14;99629.16;6223372;22;20099;-77
2021/12/31 06:06:58;;;;;;;15.02;9.93;;;;;;;-6.26;94.73;99618.97;6246684;22;20020;-77
2021/12/31 06:09:24;;;;;;;18.77;11.18;;;;;;;-6.25;94.75;99623.22;6198550;22;20046;-76
2021/12/31 06:11:50;;;;;;;23.55;12.82;;;;;;;-6.22;94.97;99619.03;6222564;22;20020;-77
2021/12/31 06:14:16;;;;;;;29.02;13.85;;;;;;;-6.16;94.60;99626.69;6218419;22;20027;-75
2021/12/31 06:16:45;;;;;;;22.90;14.15;;;;;;;-6.12;94.58;99627.56;6272790;22;20024;-75
2021/12/31 06:19:12;;;;;;;24.02;14.52;;;;;;;-6.17;94.87;99624.13;6272807;22;20123;-75
2021/12/31 06:21:39;;;;;;;42.40;25.33;;;;;;;-6.11;94.91;99634.34;6245874;22;20539;-74
2021/12/31 06:24:06;;;;;;;40.35;18.63;;;;;;;-6.09;94.59;99637.75;6220850;22;20027;-76
2021/12/31 06:26:32;;;;;;;35.90;17.30;;;;;;;-6.11;94.43;99636.88;6246241;22;20019;-75
2021/12/31 06:28:58;;;;;;;31.58;17.42;;;;;;;-6.12;95.08;99637.72;6195841;22;20030;-75
2021/12/31 06:31:27;;;;;;;18.27;12.07;;;;;;;-6.24;94.53;99612.22;6271808;22;20015;-76
2021/12/31 06:33:56;;;;;;;34.13;17.92;;;;;;;-6.11;95.08;99634.34;6273646;22;20448;-75
2021/12/31 06:36:22;;;;;;;23.63;12.80;;;;;;;-6.13;95.08;99618.25;6221108;22;20586;-77
2021/12/31 09:38:56;;;;;;;25.25;14.55;;;;;;;-4.75;91.90;99411.06;6268369;22;20050;-73
2021/12/31 09:41:23;;;;;;;23.15;15.07;;;;;;;-4.69;91.71;99426.31;6192243;22;20020;-73
2021/12/31 09:43:50;;;;;;;19.10;12.63;;;;;;;-4.70;91.72;99411.88;6270699;22;20020;-73
2021/12/31 09:46:17;;;;;;;9.35;7.35;;;;;;;-4.60;91.42;99426.31;6243896;22;20019;-73
2021/12/31 09:48:44;;;;;;;28.05;16.17;;;;;;;-4.55;91.51;99411.88;6169006;22;20022;-73
2021/12/31 09:51:10;;;;;;;27.20;16.17;;;;;;;-4.58;91.73;99413.59;6244552;22;20016;-73
2021/12/31 09:53:36;;;;;;;23.73;16.00;;;;;;;-4.72;91.82;99392.38;6192525;22;20106;-73
2021/12/31 09:56:02;;;;;;;25.70;15.85;;;;;;;-4.41;91.71;99422.88;6218369;22;20022;-74
2021/12/31 09:58:30;;;;;;;17.17;11.77;;;;;;;-4.66;91.81;99385.59;6271697;22;20104;-73
2021/12/31 10:01:00;;;;;;;25.75;15.82;;;;;;;-4.43;91.37;99419.50;6243741;22;20027;-73
2021/12/31 10:03:30;;;;;;;29.60;16.88;;;;;;;-4.37;91.36;99418.63;6245784;22;20109;-73
2021/12/31 10:05:56;;;;;;;14.83;9.67;;;;;;;-4.40;91.64;99406.75;6247017;22;20026;-73
2021/12/31 10:08:26;;;;;;;25.90;12.13;;;;;;;-4.38;91.22;99402.50;6246424;22;20015;-73
2021/12/31 10:11:04;;;;;;;23.05;14.35;;;;;;;-4.42;91.17;99398.28;6272886;22;20489;-74
2021/12/31 10:13:31;;;;;;;17.55;11.30;;;;;;;-4.43;91.14;99383.84;6220201;22;20030;-73
2021/12/31 10:15:57;;;;;;;18.23;11.60;;;;;;;-4.55;91.12;99357.56;6272983;22;20404;-74
2021/12/31 10:18:35;;;;;;;24.35;14.48;;;;;;;-4.49;91.16;99360.94;6245197;22;20081;-75
2021/12/31 10:21:02;;;;;;;19.67;12.85;;;;;;;-4.31;90.88;99393.97;6194968;22;20027;-74
2021/12/31 10:23:28;;;;;;;20.02;11.85;;;;;;;-4.44;91.14;99366.84;6221460;22;20015;-74
2021/12/31 10:26:08;;;;;;;20.15;14.23;;;;;;;-4.29;91.17;99379.53;6196647;22;20022;-74
2021/12/31 10:28:34;;;;;;;19.40;12.05;;;;;;;-4.25;91.15;99385.47;6246657;22;20090;-74
2021/12/31 10:31:13;;;;;;;24.17;13.63;;;;;;;-4.26;90.97;99392.28;6274392;22;20023;-75
2021/12/31 10:33:41;;;;;;;23.65;14.27;;;;;;;-4.19;90.84;99394.81;6222158;22;20047;-75
2021/12/31 10:36:07;;;;;;;26.67;14.30;;;;;;;-4.39;90.92;99365.16;6222065;22;20047;-75
2021/12/31 10:38:40;;;;;;;23.27;12.68;;;;;;;-4.24;91.20;99395.66;6273866;22;20448;-75
2021/12/31 10:41:06;;;;;;;33.85;20.40;;;;;;;-4.35;91.04;99381.28;6246957;22;20043;-75
2021/12/31 10:43:33;;;;;;;30.25;16.35;;;;;;;-4.38;90.89;99360.88;6246610;22;20126;-75
2021/12/31 10:46:03;;;;;;;24.13;13.75;;;;;;;-4.19;91.19;99382.06;6220868;22;20015;-76
2021/12/31 10:48:50;;;;;;;34.88;16.80;;;;;;;-4.19;91.14;99375.28;6195960;22;20069;-75
2021/12/31 10:51:38;;;;;;;25.88;16.45;;;;;;;-4.45;91.36;99334.59;6246321;22;20082;-75
2021/12/31 10:54:37;;;;;;;26.42;15.75;;;;;;;-4.32;91.91;99365.97;6149314;22;20091;-75
2021/12/31 10:57:06;;;;;;;30.92;16.08;;;;;;;-4.47;91.74;99336.31;6175492;22;20680;-75
2021/12/31 10:59:37;;;;;;;24.40;15.90;;;;;;;-4.32;92.11;99371.91;6173271;22;20410;-76
2021/12/31 11:02:06;;;;;;;30.23;15.95;;;;;;;-4.44;92.05;99330.34;6221330;22;20022;-75
2021/12/31 11:04:33;;;;;;;29.15;15.82;;;;;;;-4.37;91.83;99332.03;6273612;22;20012;-75
2021/12/31 11:07:00;;;;;;;22.02;11.75;;;;;;;-4.42;91.64;99326.97;6172791;22;20023;-75
2021/12/31 11:09:32;;;;;;;18.90;12.43;;;;;;;-4.34;92.19;99348.16;6246746;22;20046;-76
2021/12/31 11:11:59;;;;;;;32.55;16.98;;;;;;;-4.27;92.46;99354.06;6222572;22;20471;-76
2021/12/31 11:14:25;;;;;;;33.75;18.45;;;;;;;-4.45;91.92;99324.41;6273264;22;20049;-76
2021/12/31 11:16:51;;;;;;;20.80;11.90;;;;;;;-4.29;92.04;99348.13;6195870;22;20024;-75
2021/12/31 11:19:18;;;;;;;22.73;13.02;;;;;;;-4.33;92.13;99339.66;6222296;22;20061;-77
2021/12/31 11:21:49;;;;;;;21.92;12.35;;;;;;;-4.32;92.03;99331.16;6248251;22;20448;-76
2021/12/31 11:24:29;;;;;;;;;;;;;;;-4.30;92.27;99329.47;6199308;22;20015;-76
2021/12/31 11:26:57;;;;;;;32.45;18.20;;;;;;;-4.28;92.12;99325.19;6246874;22;19915;-76
2021/12/31 11:29:23;;;;;;;33.85;18.85;;;;;;;-4.35;92.12;99300.59;6221928;22;20015;-76
2021/12/31 11:31:49;;;;;;;35.33;18.20;;;;;;;-4.26;92.19;99320.97;6196228;22;20514;-77
2021/12/31 11:34:16;;;;;;;26.92;16.23;;;;;;;-4.44;91.73;99290.47;6246531;22;20095;-76
2021/12/31 11:36:52;;;;;;;31.98;17.55;;;;;;;-4.25;92.07;99311.59;6220561;22;20161;-77
2021/12/31 11:39:26;;;;;;;27.27;14.48;;;;;;;-4.51;91.97;99283.69;6221730;22;20023;-76
2021/12/31 11:41:53;;;;;;;30.42;16.15;;;;;;;-4.43;92.10;99287.06;6273852;22;20371;-76
2021/12/31 11:44:23;;;;;;;37.67;20.08;;;;;;;-4.27;91.88;99315.84;6196603;22;20478;-76
2021/12/31 11:46:51;;;;;;;33.38;17.48;;;;;;;-4.36;92.53;99298.94;6198207;22;20020;-76
2021/12/31 11:49:40;;;;;;;22.45;13.45;;;;;;;-4.33;92.32;99298.91;6221312;22;20106;-76
2021/12/31 11:52:14;;;;;;;36.17;18.40;;;;;;;-4.33;92.50;99298.06;6218453;22;20026;-76
2021/12/31 11:54:40;;;;;;;39.05;21.05;;;;;;;-4.39;92.83;99288.75;6198209;22;20023;-77
2021/12/31 11:57:16;;;;;;;24.40;12.43;;;;;;;-4.33;92.78;99292.97;6172419;22;20321;-77
2021/12/31 11:59:44;;;;;;;27.23;15.63;;;;;;;-4.42;93.10;99262.44;6246989;22;20440;-77
2021/12/31 12:02:13;;;;;;;38.55;21.45;;;;;;;-4.45;92.81;99260.75;6196550;22;20019;-77
2021/12/31 12:04:41;;;;;;;28.73;16.85;;;;;;;-4.33;92.84;99268.34;6147602;22;20027;-76
2021/12/31 12:07:36;;;;;;;19.65;12.13;;;;;;;-4.28;92.88;99279.34;6171762;22;20110;-77
2021/12/31 12:10:02;;;;;;;32.80;19.20;;;;;;;-4.27;92.72;99270.84;6226387;22;20023;-77
2021/12/31 12:12:34;;;;;;;28.63;14.20;;;;;;;-4.31;92.61;99253.88;6224659;22;20015;-77
2021/12/31 12:15:22;;;;;;;22.05;12.60;;;;;;;-4.38;92.76;99252.22;6222053;22;20023;-77
2021/12/31 12:17:48;;;;;;;36.38;19.63;;;;;;;-4.31;93.34;99264.06;6199354;22;20162;-77
2021/12/31 12:20:23;;;;;;;41.00;17.67;;;;;;;-4.28;93.53;99261.50;6196009;22;20065;-78
2021/12/31 12:22:50;;;;;;;37.70;19.88;;;;;;;-4.48;93.53;99232.75;6196999;22;20069;-78
2021/12/31 12:25:18;;;;;;;31.35;18.30;;;;;;;-4.28;93.54;99261.50;6147026;22;20507;-77
2021/12/31 12:28:01;;;;;;;32.42;15.77;;;;;;;-4.34;93.67;99261.53;6195984;22;20021;-78
2021/12/31 12:30:27;;;;;;;40.10;18.55;;;;;;;-4.32;93.62;99249.63;6223322;22;20039;-78
2021/12/31 12:33:06;;;;;;;40.15;19.67;;;;;;;-4.28;93.80;99266.59;6195426;22;20015;-78
2021/12/31 12:35:36;;;;;;;38.28;17.73;;;;;;;-4.37;93.78;99235.25;6172832;22;20023;-78
2021/12/31 12:38:09;;;;;;;44.05;23.15;;;;;;;-4.30;93.74;99259.84;6165895;23;20107;-77
2021/12/31 12:40:50;;;;;;;44.08;20.92;;;;;;;-4.30;93.76;99252.19;6142997;23;20020;-76
2021/12/31 12:43:32;;;;;;;30.20;16.63;;;;;;;-4.29;93.82;99249.63;6142568;23;20027;-78
2021/12/31 12:46:01;;;;;;;47.03;22.75;;;;;;;-4.26;94.12;99254.72;6144537;23;20024;-77
2021/12/31 12:48:37;;;;;;;42.70;20.70;;;;;;;-4.28;94.22;99245.38;6141555;23;20055;-78
2021/12/31 12:51:11;;;;;;;30.52;16.00;;;;;;;-4.33;93.99;99235.22;6166677;23;20044;-78
2021/12/31 12:53:42;;;;;;;35.25;19.75;;;;;;;-4.29;94.34;99231.78;6141544;23;20024;-76
2021/12/31 12:56:16;;;;;;;53.67;25.73;;;;;;;-4.27;94.53;99241.97;6215309;23;20461;-75
2021/12/31 12:58:51;;;;;;;39.15;15.68;;;;;;;-4.36;94.72;99225.06;6141815;23;20472;-78
2021/12/31 13:01:18;;;;;;;45.33;21.55;;;;;;;-4.27;94.63;99227.56;6191500;23;20368;-76
2021/12/31 13:03:51;;;;;;;45.85;22.88;;;;;;;-4.25;94.18;99224.97;6218795;23;20024;-77
2021/12/31 13:06:18;;;;;;;35.38;17.67;;;;;;;-4.32;94.43;99213.97;6215025;23;20027;-76
2021/12/31 13:08:44;;;;;;;38.45;20.00;;;;;;;-4.26;94.59;99225.84;6241752;23;20024;-72
2021/12/31 13:11:11;;;;;;;54.60;26.77;;;;;;;-4.27;94.82;99227.56;6215283;23;20020;-72
2021/12/31 13:13:37;;;;;;;47.17;24.13;;;;;;;-4.25;94.92;99214.78;6189879;23;20023;-72
2021/12/31 13:16:07;;;;;;;31.48;13.23;;;;;;;-4.26;94.72;99219.06;6189845;23;20103;-73
2021/12/31 13:18:36;;;;;;;46.33;22.08;;;;;;;-4.24;94.81;99216.50;6213785;23;20020;-72
2021/12/31 13:21:08;;;;;;;49.42;22.13;;;;;;;-4.26;95.11;99216.53;6241535;23;20047;-72
2021/12/31 13:23:34;;;;;;;48.00;22.45;;;;;;;-4.21;95.11;99214.78;6214838;23;20024;-72
2021/12/31 13:26:17;;;;;;;23.98;12.45;;;;;;;-4.18;95.31;99210.50;6241633;23;20047;-72
2021/12/31 13:28:43;;;;;;;46.92;22.65;;;;;;;-4.17;94.86;99220.69;6241056;23;20028;-72
2021/12/31 13:31:09;;;;;;;42.33;17.83;;;;;;;-4.28;95.10;99208.00;6241879;23;20055;-72
2021/12/31 13:33:48;;;;;;;52.38;21.70;;;;;;;-4.15;95.46;99215.56;6189229;23;20606;-71
2021/12/31 13:36:27;;;;;;;66.20;26.25;;;;;;;-4.17;95.42;99207.97;6241507;23;20027;-72
2021/12/31 13:39:15;;;;;;;51.17;22.85;;;;;;;-4.15;95.33;99211.31;6241408;23;20040;-72
2021/12/31 13:42:01;;;;;;;58.95;27.42;;;;;;;-4.13;95.27;99213.88;6241125;23;20031;-72
2021/12/31 13:44:35;;;;;;;42.50;20.10;;;;;;;-4.13;95.33;99222.38;6241221;23;20155;-72
2021/12/31 13:47:11;;;;;;;32.47;15.90;;;;;;;-4.12;95.38;99211.31;6241045;23;20487;-72
2021/12/31 13:49:38;;;;;;;55.92;24.27;;;;;;;-4.11;95.47;99215.56;6241519;23;20111;-71
2021/12/31 13:52:34;;;;;;;58.40;26.83;;;;;;;-4.17;95.31;99213.06;6214775;23;20460;-72
2021/12/31 13:55:17;;;;;;;59.03;25.02;;;;;;;-4.13;95.57;99208.78;6190296;23;20108;-71
2021/12/31 13:58:06;;;;;;;38.63;17.80;;;;;;;-4.23;95.94;99193.56;6216625;23;20525;-73
2021/12/31 14:00:33;;;;;;;54.38;21.77;;;;;;;-4.12;95.52;99200.28;6243464;23;20471;-72
2021/12/31 14:03:10;;;;;;;37.78;17.65;;;;;;;-4.11;95.69;99201.97;6241721;23;20452;-72
2021/12/31 14:05:37;;;;;;;49.42;21.80;;;;;;;-4.11;95.52;99209.59;6242107;23;20027;-72
2021/12/31 14:08:18;;;;;;;44.53;17.50;;;;;;;-4.08;95.61;99207.03;6191417;23;20073;-72
2021/12/31 14:10:44;;;;;;;67.80;26.50;;;;;;;-4.09;95.84;99200.28;6243158;23;20020;-72
2021/12/31 14:13:10;;;;;;;62.33;27.10;;;;;;;-4.09;96.18;99190.06;6241649;23;20147;-72
2021/12/31 14:15:37;;;;;;;70.75;29.98;;;;;;;-4.11;96.20;99186.69;6216229;23;20023;-73
2021/12/31 14:18:06;;;;;;;53.70;22.65;;;;;;;-4.06;95.98;99183.25;6215754;23;20023;-72
2021/12/31 14:20:34;;;;;;;54.70;22.42;;;;;;;-4.08;95.60;99191.75;6216469;23;20425;-72
2021/12/31 14:23:03;;;;;;;61.78;24.80;;;;;;;-4.06;95.66;99184.97;6243447;23;20026;-72
2021/12/31 14:25:40;;;;;;;57.78;25.40;;;;;;;-4.08;95.72;99173.91;6242906;23;20103;-72
2021/12/31 14:28:07;;;;;;;57.22;23.80;;;;;;;-4.07;95.79;99171.38;6243060;23;20024;-72
2021/12/31 14:30:33;;;;;;;70.50;24.30;;;;;;;-4.05;95.76;99168.78;6215665;23;20020;-72